createdAt,value
2019-03-12T00:00:55.030Z,12.70
2019-03-12T00:03:23.664Z,16.30
2019-03-12T00:05:52.409Z,12.23
2019-03-12T00:08:21.060Z,17.93
2019-03-12T00:10:49.711Z,17.30
2019-03-12T00:13:18.376Z,11.40
2019-03-12T00:15:47.019Z,18.27
2019-03-12T00:18:15.682Z,21.00
2019-03-12T00:20:44.403Z,21.63
2019-03-12T00:23:13.055Z,14.33
2019-03-12T00:25:41.705Z,13.80
2019-03-12T00:28:10.651Z,21.07
2019-03-12T00:30:39.303Z,27.40
2019-03-12T00:33:07.989Z,24.40
2019-03-12T00:35:36.607Z,17.37
2019-03-12T00:38:05.323Z,15.93
2019-03-12T00:40:34.177Z,19.40
2019-03-12T00:43:03.074Z,23.60
2019-03-12T00:45:31.764Z,19.90
2019-03-12T00:48:00.418Z,18.93
2019-03-12T00:50:29.116Z,16.13
2019-03-12T00:52:57.819Z,15.27
2019-03-12T00:55:26.687Z,22.60
2019-03-12T00:57:55.380Z,16.30
2019-03-12T01:00:24.053Z,16.90
2019-03-12T01:02:52.906Z,27.33
2019-03-12T01:05:21.915Z,19.77
2019-03-12T01:07:50.569Z,21.53
2019-03-12T01:10:19.212Z,14.40
2019-03-12T01:12:47.831Z,22.87
2019-03-12T01:15:16.484Z,15.43
2019-03-12T01:17:45.530Z,26.80
2019-03-12T01:20:14.525Z,24.97
2019-03-12T01:22:43.356Z,17.10
2019-03-12T01:25:12.871Z,37.20
2019-03-12T01:27:42.064Z,14.93
2019-03-12T01:30:12.835Z,24.73
2019-03-12T01:32:41.934Z,17.90
2019-03-12T01:35:10.844Z,16.17
2019-03-12T01:37:39.908Z,22.10
2019-03-12T01:40:10.208Z,16.53
2019-03-12T01:42:38.868Z,18.60
2019-03-12T01:45:09.648Z,18.17
2019-03-12T01:47:39.120Z,26.57
2019-03-12T01:50:08.897Z,17.23
2019-03-12T01:52:37.532Z,23.00
2019-03-12T01:55:07.229Z,15.20
2019-03-12T01:57:35.872Z,20.67
2019-03-12T02:00:05.225Z,13.27
2019-03-12T02:02:33.865Z,15.30
2019-03-12T02:05:02.552Z,17.80
2019-03-12T02:07:31.204Z,16.60
2019-03-12T02:09:59.863Z,26.07
2019-03-12T02:12:28.547Z,21.13
2019-03-12T02:14:57.449Z,17.47
2019-03-12T02:17:26.124Z,13.90
2019-03-12T02:19:54.807Z,15.60
2019-03-12T02:22:23.671Z,21.40
2019-03-12T02:24:53.216Z,17.70
2019-03-12T02:27:22.033Z,29.47
2019-03-12T02:29:50.680Z,25.97
2019-03-12T02:32:19.310Z,19.67
2019-03-12T02:34:48.040Z,24.73
2019-03-12T02:37:16.680Z,20.80
2019-03-12T02:39:45.415Z,16.40
2019-03-12T02:42:14.433Z,19.43
2019-03-12T02:44:43.319Z,15.33
2019-03-12T02:47:12.193Z,20.47
2019-03-12T02:49:40.821Z,14.00
2019-03-12T02:52:09.677Z,19.57
2019-03-12T02:54:38.331Z,16.00
2019-03-12T02:57:06.972Z,13.33
2019-03-12T02:59:35.640Z,24.77
2019-03-12T03:02:04.438Z,18.23
2019-03-12T03:04:33.116Z,13.27
2019-03-12T03:07:23.965Z,25.23
2019-03-12T03:09:52.643Z,28.13
2019-03-12T03:12:21.273Z,21.57
2019-03-12T03:14:49.998Z,20.37
2019-03-12T03:17:18.745Z,20.13
2019-03-12T03:19:47.424Z,17.70
2019-03-12T03:22:16.061Z,28.00
2019-03-12T03:24:44.705Z,25.30
2019-03-12T03:27:13.330Z,23.47
2019-03-12T03:29:41.980Z,32.27
2019-03-12T03:32:10.601Z,25.17
2019-03-12T03:34:39.360Z,39.97
2019-03-12T03:37:08.009Z,26.80
2019-03-12T03:39:36.643Z,25.50
2019-03-12T03:42:05.618Z,23.37
2019-03-12T03:44:34.236Z,18.93
2019-03-12T03:47:02.961Z,19.13
2019-03-12T03:49:31.610Z,34.07
2019-03-12T03:52:00.331Z,25.37
2019-03-12T03:54:29.212Z,21.20
2019-03-12T03:56:57.855Z,28.40
2019-03-12T03:59:26.460Z,27.97
2019-03-12T04:01:55.112Z,17.13
2019-03-12T04:04:23.767Z,23.10
2019-03-12T04:06:52.426Z,19.47
2019-03-12T04:09:21.046Z,17.23
2019-03-12T04:11:49.689Z,19.23
2019-03-12T04:14:18.337Z,19.73
2019-03-12T04:16:46.990Z,23.63
2019-03-12T04:19:15.674Z,34.55
2019-03-12T04:21:44.328Z,27.35
2019-03-12T04:24:13.039Z,24.17
2019-03-12T04:26:41.685Z,34.93
2019-03-12T04:29:10.360Z,31.23
2019-03-12T04:31:39.011Z,28.97
2019-03-12T04:34:14.271Z,38.67
2019-03-12T04:36:42.950Z,28.33
2019-03-12T04:39:11.616Z,28.10
2019-03-12T04:41:40.262Z,32.83
2019-03-12T04:44:08.979Z,32.50
2019-03-12T04:46:37.632Z,28.15
2019-03-12T04:49:06.249Z,27.93
2019-03-12T04:51:35.036Z,34.80
2019-03-12T04:54:03.674Z,36.20
2019-03-12T04:56:32.321Z,30.68
2019-03-12T04:59:01.042Z,26.67
2019-03-12T05:01:30.027Z,42.85
2019-03-12T05:03:58.644Z,18.93
2019-03-12T05:06:27.311Z,30.57
2019-03-12T05:08:56.192Z,26.80
2019-03-12T05:11:24.847Z,35.57
2019-03-12T05:14:21.310Z,28.80
2019-03-12T05:16:50.126Z,26.25
2019-03-12T05:19:18.818Z,29.70
2019-03-12T05:21:47.548Z,36.95
2019-03-12T05:24:16.267Z,28.57
2019-03-12T05:26:44.920Z,32.97
2019-03-12T05:29:13.555Z,31.75
2019-03-12T05:31:42.240Z,27.98
2019-03-12T05:34:10.905Z,26.10
2019-03-12T05:36:39.539Z,27.60
2019-03-12T05:39:08.231Z,23.92
2019-03-12T05:41:36.928Z,38.17
2019-03-12T05:44:05.570Z,23.47
2019-03-12T05:46:34.231Z,26.62
2019-03-12T05:49:03.080Z,33.80
2019-03-12T05:51:31.723Z,39.60
2019-03-12T05:54:00.367Z,23.57
2019-03-12T05:56:29.037Z,37.77
2019-03-12T05:58:58.031Z,38.25
2019-03-12T06:01:26.687Z,29.87
2019-03-12T06:03:55.358Z,29.52
2019-03-12T06:06:24.029Z,23.60
2019-03-12T06:08:52.680Z,32.60
2019-03-12T06:11:21.364Z,28.45
2019-03-12T06:13:50.005Z,26.48
2019-03-12T06:16:18.679Z,37.98
2019-03-12T06:18:47.335Z,27.20
2019-03-12T06:21:15.956Z,24.10
2019-03-12T06:23:44.622Z,33.30
2019-03-12T06:26:13.243Z,33.93
2019-03-12T06:28:41.920Z,33.77
2019-03-12T06:31:29.297Z,40.07
2019-03-12T06:34:04.196Z,33.80
2019-03-12T06:36:40.235Z,40.12
2019-03-12T06:39:14.841Z,36.43
2019-03-12T06:41:54.518Z,39.30
2019-03-12T06:44:34.203Z,46.27
2019-03-12T06:47:19.959Z,42.80
2019-03-12T06:49:57.106Z,36.50
2019-03-12T06:52:37.408Z,39.37
2019-03-12T06:55:16.091Z,38.60
2019-03-12T06:58:21.955Z,33.47
2019-03-12T07:00:57.948Z,44.03
2019-03-12T07:03:40.698Z,34.13
2019-03-12T07:06:16.547Z,34.17
2019-03-12T07:08:57.692Z,40.23
2019-03-12T07:11:44.299Z,25.83
2019-03-12T07:14:25.484Z,32.27
2019-03-12T07:17:04.590Z,27.37
2019-03-12T07:19:50.867Z,33.77
2019-03-12T07:22:34.029Z,40.30
2019-03-12T07:25:21.834Z,32.60
2019-03-12T07:28:08.313Z,33.87
2019-03-12T07:30:53.616Z,31.43
2019-03-12T07:33:46.235Z,36.87
2019-03-12T07:36:25.735Z,35.50
2019-03-12T07:39:12.098Z,31.97
2019-03-12T07:41:57.859Z,32.10
2019-03-12T07:44:44.324Z,36.00
2019-03-12T07:47:36.169Z,33.87
2019-03-12T07:50:14.015Z,34.03
2019-03-12T07:52:54.515Z,24.80
2019-03-12T07:55:40.177Z,24.93
2019-03-12T07:58:34.943Z,31.37
2019-03-12T08:01:14.263Z,33.37
2019-03-12T08:03:51.593Z,32.60
2019-03-12T08:06:32.500Z,24.30
2019-03-12T08:09:08.816Z,29.77
2019-03-12T08:11:52.169Z,26.50
2019-03-12T08:14:33.438Z,27.23
2019-03-12T08:17:30.367Z,25.63
2019-03-12T08:20:12.688Z,27.40
2019-03-12T08:23:03.305Z,25.13
2019-03-12T08:25:46.531Z,36.43
2019-03-12T08:28:33.238Z,26.20
2019-03-12T08:31:19.526Z,21.47
2019-03-12T08:34:05.572Z,19.60
2019-03-12T08:36:53.379Z,20.20
2019-03-12T08:39:35.987Z,21.07
2019-03-12T08:42:17.770Z,22.50
2019-03-12T08:45:11.106Z,21.67
2019-03-12T08:47:52.219Z,16.30
2019-03-12T08:50:45.148Z,17.07
2019-03-12T08:53:27.415Z,23.80
2019-03-12T08:56:06.807Z,39.73
2019-03-12T08:58:57.907Z,11.33
2019-03-12T09:01:44.036Z,21.70
2019-03-12T09:04:29.731Z,19.77
2019-03-12T09:07:06.279Z,21.50
2019-03-12T09:09:56.872Z,10.10
2019-03-12T09:12:35.262Z,22.97
2019-03-12T09:15:13.195Z,27.97
2019-03-12T09:18:03.788Z,13.73
2019-03-12T09:20:40.061Z,18.10
2019-03-12T09:23:22.539Z,22.90
2019-03-12T09:26:00.963Z,19.30
2019-03-12T09:28:37.888Z,15.03
2019-03-12T09:31:19.132Z,19.40
2019-03-12T09:34:05.684Z,25.43
2019-03-12T09:36:51.954Z,22.87
2019-03-12T09:39:42.573Z,17.20
2019-03-12T09:42:36.491Z,18.40
2019-03-12T09:45:28.158Z,14.00
2019-03-12T09:48:07.011Z,19.50
2019-03-12T09:50:43.792Z,21.30
2019-03-12T09:53:34.491Z,14.70
2019-03-12T09:56:25.726Z,9.27
2019-03-12T09:59:11.919Z,9.40
2019-03-12T10:01:59.728Z,28.03
2019-03-12T10:04:50.820Z,12.17
2019-03-12T10:07:28.597Z,14.70
2019-03-12T10:10:15.203Z,14.27
2019-03-12T10:12:58.248Z,16.30
2019-03-12T10:15:44.745Z,10.10
2019-03-12T10:18:24.741Z,17.47
2019-03-12T10:21:00.781Z,19.90
2019-03-12T10:24:06.531Z,11.80
2019-03-12T10:26:52.617Z,20.60
2019-03-12T10:29:33.505Z,18.87
2019-03-12T10:32:33.143Z,18.93
2019-03-12T10:35:07.016Z,16.50
2019-03-12T10:37:48.240Z,12.47
2019-03-12T10:40:23.224Z,20.97
2019-03-12T10:43:00.742Z,18.53
2019-03-12T10:45:51.243Z,14.53
2019-03-12T10:48:19.905Z,22.30
2019-03-12T10:50:48.552Z,20.37
2019-03-12T10:53:17.286Z,17.17
2019-03-12T10:55:45.969Z,23.93
2019-03-12T10:58:14.632Z,19.00
2019-03-12T11:00:44.132Z,20.23
2019-03-12T11:03:12.796Z,15.60
2019-03-12T11:05:46.305Z,17.00
2019-03-12T11:08:12.128Z,22.93
2019-03-12T11:10:41.017Z,16.30
2019-03-12T11:13:09.689Z,22.80
2019-03-12T11:15:38.328Z,20.43
2019-03-12T11:18:06.976Z,15.30
2019-03-12T11:20:35.884Z,17.20
2019-03-12T11:23:04.512Z,13.30
2019-03-12T11:25:33.163Z,17.13
2019-03-12T11:28:01.785Z,24.73
2019-03-12T11:30:30.440Z,9.27
2019-03-12T11:32:59.102Z,12.80
2019-03-12T11:35:38.228Z,13.13
2019-03-12T11:37:58.104Z,13.97
2019-03-12T11:40:32.059Z,16.10
2019-03-12T11:42:57.445Z,14.50
2019-03-12T11:45:36.140Z,13.20
2019-03-12T11:47:56.648Z,25.77
2019-03-12T11:50:25.458Z,11.47
2019-03-12T11:52:58.515Z,21.00
2019-03-12T11:55:24.938Z,17.50
2019-03-12T11:57:53.654Z,15.80
2019-03-12T12:00:26.002Z,15.53
2019-03-12T12:02:59.866Z,18.43
2019-03-12T12:05:25.102Z,8.87
2019-03-12T12:07:54.037Z,16.50
2019-03-12T12:10:22.950Z,16.67
2019-03-12T12:12:51.704Z,17.87
2019-03-12T12:15:20.406Z,11.83
2019-03-12T12:17:49.519Z,18.67
2019-03-12T12:20:28.967Z,11.00
2019-03-12T12:22:48.820Z,15.37
2019-03-12T12:25:17.566Z,19.40
2019-03-12T12:27:46.680Z,12.83
2019-03-12T12:30:16.936Z,9.43
2019-03-12T12:32:45.644Z,14.50
2019-03-12T12:35:14.461Z,24.00
2019-03-12T12:37:43.175Z,18.53
2019-03-12T12:40:13.622Z,17.10
2019-03-12T12:42:42.381Z,11.17
2019-03-12T12:45:13.964Z,15.10
2019-03-12T12:47:42.619Z,17.13
2019-03-12T12:50:11.540Z,12.00
2019-03-12T12:52:40.262Z,10.20
2019-03-12T12:55:10.137Z,11.87
2019-03-12T12:57:38.780Z,17.23
2019-03-12T13:00:10.092Z,15.37
2019-03-12T13:02:38.761Z,13.47
2019-03-12T13:05:07.400Z,19.23
2019-03-12T13:07:36.071Z,15.10
2019-03-12T13:10:05.160Z,19.73
2019-03-12T13:12:33.795Z,15.53
2019-03-12T13:15:02.495Z,12.23
2019-03-12T13:17:31.134Z,15.53
2019-03-12T13:20:01.181Z,15.40
2019-03-12T13:22:29.821Z,12.83
2019-03-12T13:24:58.452Z,14.93
2019-03-12T13:27:27.145Z,9.73
2019-03-12T13:29:55.795Z,14.53
2019-03-12T13:32:24.572Z,11.67
2019-03-12T13:34:53.287Z,15.73
2019-03-12T13:37:22.181Z,16.33
2019-03-12T13:39:50.825Z,15.60
2019-03-12T13:42:19.571Z,10.63
2019-03-12T13:44:48.340Z,8.90
2019-03-12T13:47:17.071Z,21.57
2019-03-12T13:49:45.707Z,12.30
2019-03-12T13:52:14.458Z,20.17
2019-03-12T13:54:43.224Z,16.23
2019-03-12T13:57:12.160Z,23.33
2019-03-12T13:59:40.810Z,13.30
2019-03-12T14:02:09.553Z,14.20
2019-03-12T14:04:38.164Z,13.50
2019-03-12T14:07:06.847Z,10.30
2019-03-12T14:09:35.516Z,21.63
2019-03-12T14:12:04.311Z,11.53
2019-03-12T14:14:33.005Z,14.70
2019-03-12T14:17:01.655Z,10.13
2019-03-12T14:19:30.278Z,14.87
2019-03-12T14:22:00.034Z,11.03
2019-03-12T14:24:28.673Z,12.93
2019-03-12T14:26:57.424Z,16.47
2019-03-12T14:29:26.136Z,10.93
2019-03-12T14:31:54.793Z,18.57
2019-03-12T14:34:23.419Z,16.33
2019-03-12T14:36:52.067Z,13.77
2019-03-12T14:39:20.788Z,15.93
2019-03-12T14:41:49.424Z,14.37
2019-03-12T14:44:18.307Z,12.70
2019-03-12T14:46:46.952Z,19.73
2019-03-12T14:49:15.617Z,12.73
2019-03-12T14:51:55.224Z,22.03
2019-03-12T14:54:23.855Z,13.23
2019-03-12T14:56:52.537Z,13.60
2019-03-12T14:59:21.185Z,11.23
2019-03-12T15:01:49.823Z,11.23
2019-03-12T15:04:18.524Z,14.23
2019-03-12T15:06:47.168Z,9.83
2019-03-12T15:09:16.281Z,14.90
2019-03-12T15:11:45.262Z,10.93
2019-03-12T15:14:13.913Z,16.43
2019-03-12T15:16:42.537Z,21.47
2019-03-12T15:19:11.264Z,12.87
2019-03-12T15:21:40.112Z,22.10
2019-03-12T15:24:08.777Z,15.30
2019-03-12T15:26:37.496Z,12.37
2019-03-12T15:29:06.151Z,16.70
2019-03-12T15:31:34.858Z,10.10
2019-03-12T15:34:03.531Z,12.50
2019-03-12T15:36:32.162Z,10.57
2019-03-12T15:39:00.813Z,19.70
2019-03-12T15:41:29.488Z,10.63
2019-03-12T15:43:58.136Z,17.40
2019-03-12T15:46:26.811Z,10.70
2019-03-12T15:48:55.683Z,7.53
2019-03-12T15:51:24.308Z,11.33
2019-03-12T15:53:52.940Z,12.70
2019-03-12T15:56:21.578Z,11.10
2019-03-12T15:58:50.235Z,12.50
2019-03-12T16:01:18.895Z,7.97
2019-03-12T16:03:47.545Z,10.07
2019-03-12T16:06:16.162Z,10.70
2019-03-12T16:08:44.780Z,13.93
2019-03-12T16:11:13.416Z,8.43
2019-03-12T16:13:42.147Z,14.47
2019-03-12T16:16:10.756Z,12.00
2019-03-12T16:18:39.394Z,10.97
2019-03-12T16:21:08.138Z,15.47
2019-03-12T16:23:36.752Z,8.93
2019-03-12T16:26:05.389Z,6.83
2019-03-12T16:28:34.100Z,14.60
2019-03-12T16:31:02.736Z,10.80
2019-03-12T16:33:31.372Z,12.93
2019-03-12T16:36:00.026Z,13.03
2019-03-12T16:38:28.665Z,7.77
2019-03-12T16:40:57.303Z,16.73
2019-03-12T16:43:25.917Z,10.23
2019-03-12T16:45:54.578Z,7.23
2019-03-12T16:48:23.195Z,10.83
2019-03-12T16:50:51.843Z,8.23
2019-03-12T16:53:20.457Z,24.83
2019-03-12T16:55:49.106Z,13.33
2019-03-12T16:58:17.828Z,12.27
2019-03-12T17:00:46.545Z,15.70
2019-03-12T17:03:15.412Z,9.83
2019-03-12T17:05:44.294Z,11.03
2019-03-12T17:08:12.924Z,10.67
2019-03-12T17:10:54.022Z,11.93
2019-03-12T17:13:12.609Z,13.23
2019-03-12T17:15:41.239Z,10.63
2019-03-12T17:18:09.877Z,13.93
2019-03-12T17:20:38.481Z,16.10
2019-03-12T17:23:07.115Z,12.90
2019-03-12T17:25:35.724Z,9.50
2019-03-12T17:28:04.455Z,9.77
2019-03-12T17:30:33.140Z,9.73
2019-03-12T17:33:01.761Z,17.00
2019-03-12T17:35:30.420Z,14.43
2019-03-12T17:37:59.158Z,10.40
2019-03-12T17:40:28.102Z,11.87
2019-03-12T17:42:56.803Z,15.70
2019-03-12T17:45:25.440Z,8.60
2019-03-12T17:47:54.164Z,13.23
2019-03-12T17:50:22.861Z,11.00
2019-03-12T17:52:51.583Z,8.10
2019-03-12T17:55:20.252Z,10.70
2019-03-12T17:57:50.771Z,15.37
2019-03-12T18:00:20.055Z,14.40
2019-03-12T18:02:49.226Z,11.97
2019-03-12T18:05:18.039Z,13.07
2019-03-12T18:07:47.099Z,14.07
2019-03-12T18:10:15.851Z,16.97
2019-03-12T18:12:44.564Z,8.03
2019-03-12T18:15:14.534Z,8.67
2019-03-12T18:17:43.484Z,13.43
2019-03-12T18:20:13.955Z,12.67
2019-03-12T18:22:42.707Z,15.50
2019-03-12T18:25:23.280Z,11.57
2019-03-12T18:27:51.904Z,9.43
2019-03-12T18:30:20.612Z,10.50
2019-03-12T18:32:49.330Z,5.40
2019-03-12T18:35:18.038Z,11.40
2019-03-12T18:37:46.650Z,10.07
2019-03-12T18:40:17.107Z,10.63
2019-03-12T18:42:45.763Z,14.57
2019-03-12T18:45:16.509Z,12.10
2019-03-12T18:47:45.239Z,13.80
2019-03-12T18:50:14.125Z,7.97
2019-03-12T18:52:42.753Z,6.30
2019-03-12T18:55:23.598Z,8.23
2019-03-12T18:57:52.240Z,7.97
2019-03-12T19:00:20.883Z,15.53
2019-03-12T19:02:49.527Z,7.50
2019-03-12T19:05:18.162Z,6.87
2019-03-12T19:07:46.839Z,7.23
2019-03-12T19:10:17.023Z,8.93
2019-03-12T19:12:46.335Z,12.57
2019-03-12T19:15:15.196Z,8.17
2019-03-12T19:17:44.101Z,13.63
2019-03-12T19:20:12.783Z,10.30
2019-03-12T19:22:41.457Z,8.33
2019-03-12T19:25:10.225Z,7.93
2019-03-12T19:27:38.872Z,4.67
2019-03-12T19:30:07.663Z,12.40
2019-03-12T19:32:45.186Z,10.00
2019-03-12T19:35:14.142Z,10.77
2019-03-12T19:37:42.873Z,5.10
2019-03-12T19:40:14.211Z,7.70
2019-03-12T19:42:42.820Z,7.17
2019-03-12T19:45:11.609Z,16.73
2019-03-12T19:47:40.228Z,8.57
2019-03-12T19:50:11.191Z,5.57
2019-03-12T19:52:39.804Z,6.70
2019-03-12T19:55:11.109Z,9.63
2019-03-12T19:57:39.816Z,9.57
2019-03-12T20:00:11.408Z,6.90
2019-03-12T20:02:40.781Z,7.23
2019-03-12T20:05:10.181Z,5.30
2019-03-12T20:07:38.823Z,6.13
2019-03-12T20:10:26.823Z,5.53
2019-03-12T20:13:32.091Z,5.57
2019-03-12T20:16:20.201Z,6.60
2019-03-12T20:19:25.399Z,5.33
2019-03-12T20:22:31.842Z,6.43
2019-03-12T20:25:36.454Z,5.13
2019-03-12T20:28:45.263Z,4.77
2019-03-12T20:31:42.553Z,9.57
2019-03-12T20:34:44.916Z,2.30
2019-03-12T20:38:02.863Z,5.30
2019-03-12T20:41:23.676Z,11.20
2019-03-12T20:44:38.386Z,5.13
2019-03-12T20:48:04.549Z,4.43
2019-03-12T20:51:05.419Z,9.70
2019-03-12T20:54:25.985Z,7.23
2019-03-12T20:57:33.324Z,7.30
2019-03-12T21:00:32.167Z,6.73
2019-03-12T21:03:39.047Z,8.53
2019-03-12T21:06:37.067Z,5.80
2019-03-12T21:09:35.279Z,6.00
2019-03-12T21:12:27.655Z,4.93
2019-03-12T21:15:34.928Z,5.17
2019-03-12T21:18:50.190Z,5.90
2019-03-12T21:22:05.536Z,11.23
2019-03-12T21:25:04.305Z,7.17
2019-03-12T21:28:28.024Z,4.23
2019-03-12T21:30:56.676Z,9.23
2019-03-12T21:33:25.291Z,2.40
2019-03-12T21:35:53.963Z,6.27
2019-03-12T21:38:22.568Z,5.63
2019-03-12T21:40:51.288Z,5.63
2019-03-12T21:43:20.140Z,6.80
2019-03-12T21:45:48.850Z,5.60
2019-03-12T21:48:17.539Z,5.83
2019-03-12T21:50:46.475Z,4.40
2019-03-12T21:53:18.062Z,5.77
2019-03-12T21:55:46.680Z,6.93
2019-03-12T21:58:15.324Z,5.03
2019-03-12T22:00:43.928Z,3.83
2019-03-12T22:03:12.569Z,6.57
2019-03-12T22:05:41.209Z,4.70
2019-03-12T22:08:09.840Z,4.43
2019-03-12T22:10:38.557Z,5.00
2019-03-12T22:13:07.192Z,3.70
2019-03-12T22:15:35.904Z,5.13
2019-03-12T22:18:04.644Z,5.47
2019-03-12T22:20:33.278Z,10.43
2019-03-12T22:23:15.077Z,5.73
2019-03-12T22:25:43.703Z,6.20
2019-03-12T22:28:12.413Z,4.57
2019-03-12T22:30:41.068Z,6.00
2019-03-12T22:33:09.763Z,3.87
2019-03-12T22:35:38.411Z,10.27
2019-03-12T22:38:07.073Z,7.83
2019-03-12T22:40:35.898Z,5.60
2019-03-12T22:43:04.865Z,3.63
2019-03-12T22:45:33.509Z,10.07
2019-03-12T22:48:02.444Z,7.80
2019-03-12T22:50:31.088Z,3.53
2019-03-12T22:52:59.764Z,4.73
2019-03-12T22:55:28.424Z,7.80
2019-03-12T22:57:57.295Z,4.97
2019-03-12T23:00:28.176Z,9.13
2019-03-12T23:02:56.909Z,6.00
2019-03-12T23:05:25.547Z,5.57
2019-03-12T23:07:54.195Z,7.93
2019-03-12T23:10:23.139Z,4.63
2019-03-12T23:12:52.063Z,5.13
2019-03-12T23:15:20.825Z,5.47
2019-03-12T23:17:49.472Z,4.93
2019-03-12T23:20:19.128Z,10.70
2019-03-12T23:22:47.819Z,6.97
2019-03-12T23:25:16.607Z,7.17
2019-03-12T23:27:45.261Z,4.57
2019-03-12T23:30:13.975Z,6.30
2019-03-12T23:32:42.619Z,4.00
2019-03-12T23:35:11.523Z,5.10
2019-03-12T23:37:40.251Z,5.10
2019-03-12T23:40:09.051Z,4.27
2019-03-12T23:42:37.858Z,1.40
2019-03-12T23:45:07.067Z,4.03
2019-03-12T23:47:35.711Z,1.27
2019-03-12T23:50:05.636Z,1.30
2019-03-12T23:52:34.263Z,2.00
2019-03-12T23:55:02.999Z,10.40
2019-03-12T23:57:31.703Z,3.23
